Turks and Caicos Islands Weather

[source: ADDS]
METAR
MBPV 092230Z 1000/1100 34005KT 9999 SCT015 BKN050 BECMG 1012/1014 35012KT MBGT 092230Z 1000/1100 34005KT 9999 SCT015 BKN050 BECMG 1012/1014 35012KT TAF
MBPV 092230Z 1000/1100 34005KT 9999 SCT015 BKN050 BECMG 1012/1014 35012KT =
MBGT 092230Z 1000/1100 34005KT 9999 SCT015 BKN050 BECMG 1012/1014 35012KT =
SR / SS: 11:22 / 22:44 UTC (MBPV 2016-02-10)
E-mail Print PDF
Weather